Time;durP1;ratioP1;P1;durP2;ratioP2;P2;SDS_P1;SDS_P2;PMS_P1;PMS_P2;Temp;Humidity;BMP_temperature;BMP_pressure;BME280_temperature;BME280_humidity;BME280_pressure;Samples;Min_cycle;Max_cycle;Signal;HPM_P1;HPM_P2
2021/09/26 00:01:08;;;;;;;15.43;12.20;;;17.30;99.90;;;;;;5054343;28;20028;-80
2021/09/26 00:03:34;;;;;;;16.50;12.45;;;17.20;99.90;;;;;;5054633;28;20033;-81
2021/09/26 00:05:59;;;;;;;18.42;13.20;;;17.10;99.90;;;;;;5053860;28;20040;-80
2021/09/26 00:08:25;;;;;;;19.08;11.75;;;17.10;99.90;;;;;;5054096;28;20056;-80
2021/09/26 00:10:51;;;;;;;19.15;12.65;;;17.10;99.90;;;;;;5053976;28;20049;-81
2021/09/26 00:13:18;;;;;;;16.65;11.82;;;17.10;99.90;;;;;;5054424;28;20021;-81
2021/09/26 00:15:44;;;;;;;16.15;11.60;;;17.10;99.90;;;;;;5054173;28;20045;-82
2021/09/26 00:18:09;;;;;;;16.08;12.18;;;17.00;99.90;;;;;;5053125;28;20488;-81
2021/09/26 00:20:35;;;;;;;16.27;12.45;;;17.00;99.90;;;;;;5054442;28;20033;-80
2021/09/26 00:23:02;;;;;;;18.70;12.70;;;17.00;99.90;;;;;;5052031;28;20475;-80
2021/09/26 00:25:29;;;;;;;18.65;12.02;;;17.00;99.90;;;;;;5053561;28;20044;-81
2021/09/26 00:27:55;;;;;;;19.10;11.43;;;17.00;99.90;;;;;;5052020;28;20032;-81
2021/09/26 00:30:20;;;;;;;17.90;12.13;;;16.90;99.90;;;;;;5051486;28;20028;-81
2021/09/26 00:32:47;;;;;;;17.33;12.85;;;16.80;99.90;;;;;;5051739;28;20036;-82
2021/09/26 00:35:13;;;;;;;18.88;12.15;;;16.80;99.90;;;;;;5051957;28;20523;-82
2021/09/26 00:37:39;;;;;;;17.75;11.93;;;16.80;99.90;;;;;;5051253;28;20021;-80
2021/09/26 00:40:06;;;;;;;17.65;11.93;;;16.80;99.90;;;;;;5052069;28;20062;-81
2021/09/26 00:42:32;;;;;;;23.80;13.38;;;16.90;99.90;;;;;;5052881;28;20025;-80
2021/09/26 00:44:58;;;;;;;17.38;12.07;;;16.90;99.90;;;;;;5054062;28;20029;-81
2021/09/26 00:47:27;;;;;;;18.35;13.15;;;16.80;99.90;;;;;;5052034;28;20029;-82
2021/09/26 00:49:53;;;;;;;21.45;13.60;;;16.80;99.90;;;;;;5053382;28;20056;-81
2021/09/26 00:52:20;;;;;;;17.70;13.32;;;16.80;99.90;;;;;;5053971;28;20464;-84
2021/09/26 00:54:47;;;;;;;17.08;12.50;;;16.80;99.90;;;;;;5053159;28;20040;-80
2021/09/26 00:57:12;;;;;;;20.25;12.57;;;16.80;99.90;;;;;;5053865;28;20021;-81
2021/09/26 00:59:38;;;;;;;23.17;13.02;;;16.80;99.90;;;;;;5053273;28;20361;-81
2021/09/26 01:02:04;;;;;;;18.48;13.05;;;16.80;99.90;;;;;;5053505;28;20068;-81
2021/09/26 01:04:31;;;;;;;17.35;11.77;;;16.70;99.90;;;;;;5053133;28;20025;-80
2021/09/26 01:07:28;;;;;;;16.70;11.30;;;16.70;99.90;;;;;;5052765;28;20045;-82
2021/09/26 01:10:16;;;;;;;17.67;12.77;;;16.60;99.90;;;;;;5052867;28;20031;-80
2021/09/26 01:13:05;;;;;;;20.73;13.40;;;16.70;99.90;;;;;;5052536;28;20112;-81
2021/09/26 01:16:00;;;;;;;23.80;13.15;;;16.70;99.90;;;;;;5055709;28;20391;-82
2021/09/26 01:18:40;;;;;;;18.33;12.27;;;16.70;99.90;;;;;;5045681;28;20040;-81
2021/09/26 01:21:48;;;;;;;17.73;11.00;;;16.60;99.90;;;;;;5053622;28;20118;-81
2021/09/26 01:24:50;;;;;;;15.45;12.02;;;16.50;99.90;;;;;;5046272;28;20025;-81
2021/09/26 01:27:16;;;;;;;20.13;13.18;;;16.50;99.90;;;;;;5051939;28;20027;-80
2021/09/26 01:30:03;;;;;;;16.75;12.32;;;16.50;99.90;;;;;;5051678;28;20391;-81
2021/09/26 01:32:32;;;;;;;19.40;13.38;;;16.50;99.90;;;;;;5041970;28;20353;-81
2021/09/26 01:35:00;;;;;;;18.55;12.60;;;16.40;99.90;;;;;;5051370;28;20041;-81
2021/09/26 01:37:33;;;;;;;20.60;13.88;;;16.40;99.90;;;;;;5051232;28;20557;-81
2021/09/26 01:40:06;;;;;;;15.55;13.02;;;16.40;99.90;;;;;;5051190;28;20108;-80
2021/09/26 01:42:46;;;;;;;19.35;13.20;;;16.40;99.90;;;;;;5031949;28;20043;-81
2021/09/26 01:45:22;;;;;;;17.40;12.05;;;16.40;99.90;;;;;;5034808;28;20049;-81
2021/09/26 01:48:02;;;;;;;19.13;12.85;;;16.50;99.90;;;;;;5043134;28;20022;-81
2021/09/26 01:50:30;;;;;;;20.48;12.88;;;16.50;99.90;;;;;;5053421;28;20029;-81
2021/09/26 01:52:58;;;;;;;20.17;13.95;;;16.40;99.90;;;;;;5053032;28;20033;-81
2021/09/26 01:55:25;;;;;;;18.02;13.20;;;16.40;99.90;;;;;;5052845;28;20037;-80
2021/09/26 01:57:52;;;;;;;19.50;12.88;;;16.50;99.90;;;;;;5052929;28;20056;-82
2021/09/26 02:00:18;;;;;;;18.70;13.80;;;16.40;99.90;;;;;;5050669;28;20021;-81
2021/09/26 02:02:48;;;;;;;20.40;13.32;;;16.50;99.90;;;;;;5034988;28;20033;-80
2021/09/26 02:05:17;;;;;;;19.92;12.93;;;16.50;99.90;;;;;;5052669;28;20025;-80
2021/09/26 02:07:45;;;;;;;16.23;12.40;;;16.40;99.90;;;;;;5052583;28;20040;-80
2021/09/26 02:10:13;;;;;;;17.88;12.98;;;16.40;99.90;;;;;;5052115;28;20104;-80
2021/09/26 02:12:39;;;;;;;15.55;12.32;;;16.40;99.90;;;;;;5044865;28;20487;-80
2021/09/26 02:15:09;;;;;;;17.23;13.52;;;16.40;99.90;;;;;;5052829;28;20029;-81
2021/09/26 02:17:37;;;;;;;19.67;13.85;;;16.40;99.90;;;;;;5052489;28;20122;-81
2021/09/26 02:20:04;;;;;;;18.55;12.60;;;16.40;99.90;;;;;;5052540;28;20029;-80
2021/09/26 02:22:32;;;;;;;18.73;12.43;;;16.40;99.90;;;;;;5051695;28;20021;-81
2021/09/26 02:25:05;;;;;;;17.75;12.27;;;16.40;99.90;;;;;;5050958;28;20029;-80
2021/09/26 02:27:31;;;;;;;18.35;13.07;;;16.40;99.90;;;;;;5049071;28;20036;-81
2021/09/26 02:29:57;;;;;;;17.35;13.02;;;16.40;99.90;;;;;;5049859;28;20078;-80
2021/09/26 02:32:23;;;;;;;22.73;14.38;;;16.40;99.90;;;;;;5050452;28;20088;-80
2021/09/26 02:34:49;;;;;;;20.52;13.90;;;16.40;99.90;;;;;;5034822;28;20037;-81
2021/09/26 02:37:15;;;;;;;24.17;15.10;;;16.40;99.90;;;;;;5050384;28;20036;-82
2021/09/26 02:39:41;;;;;;;21.25;14.23;;;16.30;99.90;;;;;;5050052;28;20020;-81
2021/09/26 02:42:26;;;;;;;22.02;14.63;;;16.40;99.90;;;;;;5050272;28;20064;-82
2021/09/26 02:44:58;;;;;;;18.63;14.18;;;16.40;99.90;;;;;;5051465;28;20549;-80
2021/09/26 02:47:26;;;;;;;20.85;13.07;;;16.40;99.90;;;;;;5051509;28;20028;-81
2021/09/26 02:49:53;;;;;;;21.98;13.70;;;16.40;99.90;;;;;;5052113;28;20028;-81
2021/09/26 02:52:20;;;;;;;22.30;14.55;;;16.50;99.90;;;;;;5051657;28;20063;-80
2021/09/26 02:54:46;;;;;;;19.48;13.52;;;16.40;99.90;;;;;;5052159;28;20072;-81
2021/09/26 02:57:13;;;;;;;21.33;13.93;;;16.50;99.90;;;;;;5051775;28;20483;-81
2021/09/26 02:59:40;;;;;;;24.17;14.18;;;16.50;99.90;;;;;;5051706;28;20033;-80
2021/09/26 03:02:07;;;;;;;19.17;14.48;;;16.40;99.90;;;;;;5046111;28;20033;-80
2021/09/26 03:04:41;;;;;;;17.08;14.23;;;16.40;99.90;;;;;;5026289;28;20391;-80
2021/09/26 03:07:07;;;;;;;18.42;13.52;;;16.50;99.90;;;;;;5035444;28;20053;-81
2021/09/26 03:09:32;;;;;;;18.13;12.70;;;16.50;99.90;;;;;;5045021;28;20560;-80
2021/09/26 03:11:58;;;;;;;18.85;13.23;;;16.40;99.90;;;;;;5045291;28;20052;-80
2021/09/26 03:14:24;;;;;;;18.30;12.82;;;16.40;99.90;;;;;;5045045;28;20075;-80
2021/09/26 03:16:50;;;;;;;18.48;12.73;;;16.40;99.90;;;;;;5045771;28;20497;-80
2021/09/26 03:19:16;;;;;;;21.38;15.68;;;16.40;99.90;;;;;;5045165;28;20032;-81
2021/09/26 03:21:42;;;;;;;22.27;15.25;;;16.40;99.90;;;;;;5046004;28;20048;-80
2021/09/26 03:24:07;;;;;;;26.25;15.88;;;16.40;99.90;;;;;;5048433;28;20603;-79
2021/09/26 03:26:33;;;;;;;18.88;14.93;;;16.40;99.90;;;;;;5038657;28;20025;-79
2021/09/26 03:28:59;;;;;;;17.88;14.48;;;16.40;99.90;;;;;;5047347;28;20079;-80
2021/09/26 03:31:25;;;;;;;19.85;13.80;;;16.40;99.90;;;;;;5045768;28;20506;-80
2021/09/26 03:33:57;;;;;;;18.60;14.25;;;16.40;99.90;;;;;;5046723;28;20024;-80
2021/09/26 03:36:23;;;;;;;17.60;13.60;;;16.40;99.90;;;;;;5045869;28;20465;-79
2021/09/26 03:38:49;;;;;;;23.38;14.02;;;16.50;99.90;;;;;;5054144;28;20060;-80
2021/09/26 03:41:14;;;;;;;19.30;14.10;;;16.50;99.90;;;;;;5045731;28;20099;-80
2021/09/26 03:43:40;;;;;;;17.27;13.30;;;16.60;99.90;;;;;;5046808;28;20656;-80
2021/09/26 03:46:06;;;;;;;19.08;13.45;;;16.50;99.90;;;;;;5047714;28;20029;-81
2021/09/26 03:48:33;;;;;;;21.83;13.63;;;16.60;99.90;;;;;;5048137;28;20037;-81
2021/09/26 03:50:58;;;;;;;18.88;13.57;;;16.60;99.90;;;;;;5047593;28;20119;-80
2021/09/26 03:53:24;;;;;;;19.60;15.07;;;16.60;99.90;;;;;;5047619;28;20100;-81
2021/09/26 03:55:50;;;;;;;19.63;13.30;;;16.60;99.90;;;;;;5047207;28;20040;-81
2021/09/26 03:58:15;;;;;;;18.33;13.07;;;16.60;99.90;;;;;;5046641;28;20021;-80
2021/09/26 04:00:41;;;;;;;18.60;13.50;;;16.70;99.90;;;;;;5045318;28;20124;-80
2021/09/26 04:03:07;;;;;;;19.63;12.65;;;16.60;99.90;;;;;;5044828;28;20572;-80
2021/09/26 04:05:33;;;;;;;18.98;12.30;;;16.70;99.90;;;;;;5044732;28;20025;-81
2021/09/26 04:07:58;;;;;;;19.40;13.50;;;16.60;99.90;;;;;;5044821;28;20172;-81
2021/09/26 04:10:24;;;;;;;17.60;13.80;;;16.60;99.90;;;;;;5044957;28;20517;-80
2021/09/26 04:12:50;;;;;;;19.00;13.48;;;16.60;99.90;;;;;;5044649;28;20219;-80
2021/09/26 04:15:18;;;;;;;22.30;13.93;;;16.60;99.90;;;;;;5044870;28;20033;-81
2021/09/26 04:17:43;;;;;;;17.38;12.70;;;16.60;99.90;;;;;;5044963;28;20025;-81
2021/09/26 04:20:10;;;;;;;18.33;13.40;;;16.60;99.90;;;;;;5045416;28;20053;-83
2021/09/26 04:22:37;;;;;;;17.83;14.35;;;16.60;99.90;;;;;;5046947;28;20426;-81
2021/09/26 04:25:04;;;;;;;17.95;13.85;;;16.60;99.90;;;;;;5048569;28;20131;-80
2021/09/26 04:27:29;;;;;;;18.27;15.27;;;16.60;99.90;;;;;;5040553;28;20645;-80
2021/09/26 04:29:55;;;;;;;18.90;13.23;;;16.60;99.90;;;;;;5047850;28;20105;-80
2021/09/26 04:32:21;;;;;;;18.63;13.63;;;16.60;99.90;;;;;;5046264;28;20384;-80
2021/09/26 04:34:48;;;;;;;17.60;12.82;;;16.60;99.90;;;;;;5046906;28;20084;-80
2021/09/26 04:37:13;;;;;;;21.10;13.65;;;16.70;99.90;;;;;;5046543;28;20028;-80
2021/09/26 04:39:39;;;;;;;18.15;12.73;;;16.70;99.90;;;;;;5046799;28;20029;-81
2021/09/26 04:42:06;;;;;;;19.25;13.85;;;16.70;99.90;;;;;;5046466;28;20017;-80
2021/09/26 04:44:33;;;;;;;18.55;12.85;;;16.70;99.90;;;;;;5043116;28;20110;-80
2021/09/26 04:46:59;;;;;;;20.35;14.23;;;16.70;99.90;;;;;;5048510;28;20619;-81
2021/09/26 04:49:31;;;;;;;15.48;12.63;;;16.70;99.90;;;;;;5047623;28;20103;-81
2021/09/26 04:51:57;;;;;;;22.90;12.65;;;16.60;99.90;;;;;;5048562;28;20021;-80
2021/09/26 04:54:24;;;;;;;15.93;11.60;;;16.60;99.90;;;;;;5047755;28;20036;-80
2021/09/26 04:56:49;;;;;;;17.05;12.18;;;16.50;99.90;;;;;;5048498;28;20114;-82
2021/09/26 04:59:15;;;;;;;17.02;12.15;;;16.50;99.90;;;;;;5048134;28;20068;-80
2021/09/26 05:01:41;;;;;;;26.05;15.13;;;16.50;99.90;;;;;;5048203;28;20021;-80
2021/09/26 05:04:06;;;;;;;18.13;13.80;;;16.50;99.90;;;;;;5047226;28;20021;-80
2021/09/26 05:06:32;;;;;;;25.00;13.63;;;16.50;99.90;;;;;;5047855;28;20521;-82
2021/09/26 05:08:58;;;;;;;22.15;15.10;;;16.50;99.90;;;;;;5047983;28;20028;-80
2021/09/26 05:11:23;;;;;;;20.98;16.15;;;16.50;99.90;;;;;;5047897;28;20025;-80
2021/09/26 05:13:49;;;;;;;21.00;15.80;;;16.50;99.90;;;;;;5047203;28;20036;-80
2021/09/26 05:16:15;;;;;;;22.80;15.55;;;16.50;99.90;;;;;;5047761;28;20104;-81
2021/09/26 05:18:41;;;;;;;19.63;13.85;;;16.50;99.90;;;;;;5047045;28;20029;-80
2021/09/26 05:21:06;;;;;;;17.92;14.27;;;16.60;99.90;;;;;;5047836;28;20025;-80
2021/09/26 05:23:34;;;;;;;23.38;14.90;;;16.60;99.90;;;;;;5046688;28;20037;-81
2021/09/26 05:26:00;;;;;;;21.67;14.90;;;16.60;99.90;;;;;;5047900;28;20032;-80
2021/09/26 05:28:26;;;;;;;20.35;13.93;;;16.60;99.90;;;;;;5043789;28;20033;-80
2021/09/26 05:30:52;;;;;;;22.48;15.07;;;16.60;99.90;;;;;;5046132;28;20029;-82
2021/09/26 05:33:18;;;;;;;18.02;13.60;;;16.50;99.90;;;;;;5043948;28;20037;-80
2021/09/26 05:35:44;;;;;;;23.05;13.75;;;16.50;99.90;;;;;;5045249;28;20036;-80
2021/09/26 05:38:09;;;;;;;16.75;13.77;;;16.50;99.90;;;;;;5045020;28;20120;-81
2021/09/26 05:40:35;;;;;;;17.60;12.63;;;16.40;99.90;;;;;;5045356;28;20037;-80
2021/09/26 05:43:01;;;;;;;16.38;12.65;;;16.40;99.90;;;;;;5045651;28;20025;-80
2021/09/26 05:45:26;;;;;;;17.65;13.13;;;16.50;99.90;;;;;;5045124;28;20112;-80
2021/09/26 05:47:52;;;;;;;17.67;14.52;;;16.50;99.90;;;;;;5046757;28;20064;-80
2021/09/26 05:50:18;;;;;;;19.58;14.20;;;16.50;99.90;;;;;;5046841;28;20021;-82
2021/09/26 05:52:44;;;;;;;17.88;12.85;;;16.50;99.90;;;;;;5046828;28;20032;-80
2021/09/26 05:55:10;;;;;;;19.33;13.40;;;16.50;99.90;;;;;;5046693;28;20033;-81
2021/09/26 05:57:36;;;;;;;16.98;13.95;;;16.50;99.90;;;;;;5046977;28;20021;-80
2021/09/26 06:00:04;;;;;;;19.55;12.68;;;16.50;99.90;;;;;;5046964;28;20037;-81
2021/09/26 06:02:30;;;;;;;19.55;13.80;;;16.60;99.90;;;;;;5046746;28;20035;-81
2021/09/26 06:04:56;;;;;;;18.92;12.40;;;16.60;99.90;;;;;;5046186;28;20025;-80
2021/09/26 06:07:21;;;;;;;17.27;13.30;;;16.70;99.90;;;;;;5046059;28;20131;-80
2021/09/26 06:09:47;;;;;;;17.63;13.05;;;16.70;99.90;;;;;;5046737;28;20386;-83
2021/09/26 06:12:13;;;;;;;19.75;11.93;;;16.80;99.90;;;;;;5046738;28;20035;-81
2021/09/26 06:14:40;;;;;;;17.45;12.35;;;16.80;99.90;;;;;;5046438;28;20099;-80
2021/09/26 06:17:06;;;;;;;18.10;14.93;;;16.80;99.90;;;;;;5046604;28;20029;-80
2021/09/26 06:19:32;;;;;;;23.15;17.30;;;16.70;99.90;;;;;;5046127;28;20957;-80
2021/09/26 06:21:58;;;;;;;21.52;16.77;;;16.60;99.90;;;;;;5046971;28;20107;-80
2021/09/26 06:24:24;;;;;;;22.15;14.18;;;16.60;99.90;;;;;;5045996;28;20029;-80
2021/09/26 06:26:49;;;;;;;21.10;15.23;;;16.60;99.90;;;;;;5047258;28;20111;-82
2021/09/26 06:29:15;;;;;;;23.42;16.10;;;16.70;99.90;;;;;;5033423;28;20037;-83
2021/09/26 06:31:41;;;;;;;21.10;17.48;;;16.70;99.90;;;;;;5027120;28;20068;-79
2021/09/26 06:34:07;;;;;;;20.42;16.77;;;16.70;99.90;;;;;;5046437;28;20048;-79
2021/09/26 06:36:33;;;;;;;21.10;15.48;;;16.70;99.90;;;;;;5047069;28;20041;-80
2021/09/26 06:38:59;;;;;;;20.05;14.32;;;16.80;99.90;;;;;;5047392;28;20036;-80
2021/09/26 06:41:26;;;;;;;18.85;14.25;;;16.80;99.90;;;;;;5046760;28;20032;-79
2021/09/26 06:43:52;;;;;;;18.73;13.38;;;16.80;99.90;;;;;;5046934;28;20714;-79
2021/09/26 06:46:18;;;;;;;17.25;13.10;;;17.00;99.90;;;;;;5046867;28;20100;-81
2021/09/26 06:48:44;;;;;;;19.67;14.35;;;17.00;99.90;;;;;;5050178;28;20028;-80
2021/09/26 06:51:11;;;;;;;20.63;15.68;;;17.00;99.90;;;;;;5049415;28;20025;-80
2021/09/26 06:53:38;;;;;;;20.15;15.00;;;17.10;99.90;;;;;;5049203;28;20021;-80
2021/09/26 06:56:04;;;;;;;19.75;14.50;;;17.10;99.90;;;;;;5048396;28;20112;-80
2021/09/26 06:58:29;;;;;;;18.83;13.98;;;17.10;99.90;;;;;;5048734;28;20104;-80
2021/09/26 07:00:55;;;;;;;18.33;14.30;;;17.30;99.90;;;;;;5049398;28;20036;-80
2021/09/26 07:03:21;;;;;;;20.15;14.20;;;17.40;99.90;;;;;;5047807;28;20029;-80
2021/09/26 07:05:47;;;;;;;17.48;14.60;;;17.50;99.90;;;;;;5048734;28;20021;-80
2021/09/26 07:08:12;;;;;;;20.40;14.60;;;17.50;99.90;;;;;;5048204;28;20522;-80
2021/09/26 07:10:38;;;;;;;17.10;13.77;;;17.50;99.90;;;;;;5047857;28;20033;-80
2021/09/26 07:13:04;;;;;;;20.60;13.88;;;17.50;99.90;;;;;;5043352;28;20043;-78
2021/09/26 07:15:30;;;;;;;16.75;13.98;;;17.60;99.90;;;;;;5048031;28;20498;-75
2021/09/26 07:17:58;;;;;;;20.17;13.18;;;17.70;99.90;;;;;;5052772;28;20021;-78
2021/09/26 07:20:27;;;;;;;21.63;13.45;;;17.80;99.90;;;;;;5053184;28;20031;-76
2021/09/26 07:22:54;;;;;;;18.83;14.35;;;17.90;99.90;;;;;;5047561;28;20022;-77
2021/09/26 07:25:20;;;;;;;17.83;13.60;;;17.70;99.90;;;;;;5040411;28;20048;-77
2021/09/26 07:27:46;;;;;;;16.80;13.68;;;17.70;99.90;;;;;;5041711;28;20483;-77
2021/09/26 07:30:12;;;;;;;20.27;14.05;;;17.70;99.90;;;;;;5030414;28;20044;-77
2021/09/26 07:32:39;;;;;;;15.38;13.55;;;17.80;99.90;;;;;;5044474;28;20052;-77
2021/09/26 07:35:07;;;;;;;22.33;13.75;;;18.00;99.90;;;;;;5041513;28;20029;-76
2021/09/26 07:37:33;;;;;;;19.55;13.60;;;18.00;99.90;;;;;;5043598;28;20033;-78
2021/09/26 07:40:00;;;;;;;20.02;13.95;;;18.00;99.90;;;;;;5043862;28;20091;-76
2021/09/26 07:42:26;;;;;;;17.25;13.02;;;18.00;99.90;;;;;;5045112;28;20036;-77
2021/09/26 07:44:52;;;;;;;24.23;15.05;;;18.10;99.90;;;;;;5044273;28;20059;-76
2021/09/26 07:47:18;;;;;;;15.63;13.30;;;18.20;99.90;;;;;;5043887;28;20041;-77
2021/09/26 07:49:45;;;;;;;21.60;15.30;;;18.10;99.90;;;;;;5040312;28;20031;-76
2021/09/26 07:52:12;;;;;;;18.92;14.15;;;18.10;99.90;;;;;;5039459;28;20556;-77
2021/09/26 07:54:39;;;;;;;21.63;13.13;;;18.10;99.90;;;;;;5041952;28;20076;-78
2021/09/26 07:57:06;;;;;;;20.50;14.23;;;18.20;99.90;;;;;;5043893;28;20021;-77
2021/09/26 07:59:32;;;;;;;22.50;13.07;;;18.40;99.90;;;;;;5045926;28;20033;-78
2021/09/26 08:01:59;;;;;;;23.80;13.35;;;18.50;99.90;;;;;;5044377;28;20512;-77
2021/09/26 08:04:25;;;;;;;24.65;14.80;;;18.50;99.90;;;;;;5046519;28;20108;-77
2021/09/26 08:06:51;;;;;;;18.55;13.35;;;18.70;99.90;;;;;;5045165;28;20132;-77
2021/09/26 08:09:17;;;;;;;18.13;13.13;;;18.80;99.90;;;;;;5039844;28;20053;-78
2021/09/26 08:11:44;;;;;;;16.65;12.45;;;18.90;99.90;;;;;;5044430;28;20060;-77
2021/09/26 08:14:10;;;;;;;18.17;12.80;;;18.90;99.90;;;;;;5045766;28;20040;-77
2021/09/26 08:16:37;;;;;;;26.23;14.98;;;18.90;99.90;;;;;;5045801;28;20036;-77
2021/09/26 08:19:03;;;;;;;20.23;13.35;;;18.90;99.90;;;;;;5040886;28;20099;-77
2021/09/26 08:21:29;;;;;;;16.92;13.18;;;19.00;99.90;;;;;;5041171;28;20033;-77
2021/09/26 08:23:56;;;;;;;21.27;14.27;;;19.00;99.90;;;;;;5045634;28;20442;-77
2021/09/26 08:26:23;;;;;;;17.67;12.60;;;19.10;99.90;;;;;;5045235;28;20032;-77
2021/09/26 08:28:48;;;;;;;30.13;14.57;;;19.10;99.90;;;;;;5047481;28;20040;-77
2021/09/26 08:31:14;;;;;;;25.95;14.00;;;19.10;99.90;;;;;;5047884;28;20037;-76
2021/09/26 08:33:40;;;;;;;19.10;14.15;;;19.00;99.90;;;;;;5047273;28;20110;-77
2021/09/26 08:36:05;;;;;;;15.60;13.38;;;19.00;99.90;;;;;;5048191;28;20033;-77
2021/09/26 08:38:31;;;;;;;19.83;14.90;;;19.00;99.90;;;;;;5048034;28;20021;-77
2021/09/26 08:40:58;;;;;;;22.02;15.77;;;19.00;99.90;;;;;;5028218;28;20487;-77
2021/09/26 08:43:24;;;;;;;18.75;13.52;;;19.00;99.90;;;;;;5047598;28;20025;-77
2021/09/26 08:45:50;;;;;;;35.53;16.42;;;19.00;99.90;;;;;;5046255;28;20104;-77
2021/09/26 08:48:16;;;;;;;25.88;14.60;;;19.00;99.90;;;;;;5047497;28;20049;-78
2021/09/26 08:50:44;;;;;;;19.83;13.65;;;19.00;99.90;;;;;;5045344;28;20116;-79
2021/09/26 08:53:11;;;;;;;20.92;13.70;;;18.90;99.90;;;;;;5047714;28;20025;-79
2021/09/26 08:55:37;;;;;;;20.10;15.07;;;18.90;99.90;;;;;;5033785;28;20103;-77
2021/09/26 08:58:03;;;;;;;18.38;14.65;;;18.90;99.90;;;;;;5035645;28;20518;-78
2021/09/26 09:00:29;;;;;;;20.90;14.27;;;18.90;99.90;;;;;;5029805;28;20522;-78
2021/09/26 09:02:58;;;;;;;20.67;14.32;;;18.90;99.90;;;;;;5028176;28;20067;-78
2021/09/26 09:05:35;;;;;;;19.80;14.20;;;19.00;99.90;;;;;;5044609;28;20035;-78
2021/09/26 09:08:14;;;;;;;15.70;12.25;;;19.20;99.90;;;;;;5042484;28;20970;-78
2021/09/26 09:10:53;;;;;;;18.90;14.30;;;19.30;99.90;;;;;;5037472;28;20078;-78
2021/09/26 09:13:28;;;;;;;17.70;14.57;;;19.20;99.90;;;;;;5042119;28;20029;-78
2021/09/26 09:15:57;;;;;;;22.85;15.38;;;19.10;99.90;;;;;;5043167;28;20446;-78
2021/09/26 09:18:24;;;;;;;18.75;13.45;;;19.10;99.90;;;;;;5039490;28;20032;-79
2021/09/26 09:20:51;;;;;;;20.60;13.85;;;19.00;99.90;;;;;;5047605;28;20037;-77
2021/09/26 09:23:21;;;;;;;20.58;15.52;;;18.90;99.90;;;;;;5051646;28;20025;-78
2021/09/26 09:25:58;;;;;;;22.20;17.33;;;18.90;99.90;;;;;;5055278;28;20106;-78
2021/09/26 09:28:30;;;;;;;22.25;17.73;;;18.90;99.90;;;;;;5028140;28;20029;-77
2021/09/26 09:31:00;;;;;;;21.15;17.25;;;18.90;99.90;;;;;;5046159;28;20032;-77
2021/09/26 09:33:43;;;;;;;24.27;15.52;;;18.90;99.90;;;;;;5038371;28;20108;-77
2021/09/26 09:36:23;;;;;;;20.80;15.13;;;19.00;99.90;;;;;;5033624;28;20071;-78
2021/09/26 09:38:51;;;;;;;20.00;15.93;;;19.00;99.90;;;;;;5045656;28;20024;-77
2021/09/26 09:41:32;;;;;;;22.90;15.32;;;18.80;99.90;;;;;;5045496;28;20032;-77
2021/09/26 09:43:58;;;;;;;18.33;15.40;;;18.70;99.90;;;;;;5045153;28;20032;-77
2021/09/26 09:46:33;;;;;;;17.52;14.73;;;18.70;99.90;;;;;;5044174;28;20032;-77
2021/09/26 09:49:17;;;;;;;20.48;16.05;;;18.70;99.90;;;;;;5037905;28;20029;-76
2021/09/26 09:51:56;;;;;;;19.20;15.57;;;18.70;99.90;;;;;;5042351;28;20174;-77
2021/09/26 09:54:29;;;;;;;20.73;15.45;;;18.80;99.90;;;;;;5045504;28;20037;-77
2021/09/26 09:56:56;;;;;;;18.92;16.25;;;18.80;99.90;;;;;;5044015;28;20051;-78
2021/09/26 09:59:33;;;;;;;21.63;15.18;;;18.80;99.90;;;;;;5045277;28;20660;-78
2021/09/26 10:01:59;;;;;;;22.13;17.27;;;18.80;99.90;;;;;;5045581;28;20121;-77
2021/09/26 10:04:38;;;;;;;18.92;15.45;;;18.80;99.90;;;;;;5045468;28;20103;-78
2021/09/26 10:07:18;;;;;;;18.63;15.40;;;18.80;99.90;;;;;;5039676;28;20510;-78
2021/09/26 10:09:43;;;;;;;21.90;15.98;;;18.80;99.90;;;;;;5025338;28;20087;-77
2021/09/26 10:12:36;;;;;;;21.95;16.88;;;18.80;99.90;;;;;;5052150;28;20405;-77
2021/09/26 10:15:03;;;;;;;19.50;15.25;;;18.80;99.90;;;;;;5063153;28;20060;-78
2021/09/26 10:17:30;;;;;;;19.83;15.68;;;18.80;99.90;;;;;;5041272;28;20056;-77
2021/09/26 10:19:56;;;;;;;22.90;16.38;;;18.90;99.90;;;;;;5044395;28;20021;-78
2021/09/26 10:22:23;;;;;;;16.80;13.50;;;19.00;99.90;;;;;;5044797;28;20562;-78
2021/09/26 10:24:51;;;;;;;19.38;16.15;;;19.00;99.90;;;;;;5046334;28;20029;-78
2021/09/26 10:27:24;;;;;;;18.50;15.95;;;19.00;99.90;;;;;;5042951;28;20029;-77
2021/09/26 10:30:06;;;;;;;21.25;16.17;;;18.90;99.90;;;;;;5043952;28;20032;-77
2021/09/26 10:32:33;;;;;;;19.23;15.05;;;18.90;99.90;;;;;;5044066;28;20047;-78
2021/09/26 10:35:01;;;;;;;21.17;16.95;;;18.80;99.90;;;;;;5043656;28;20419;-77
2021/09/26 10:37:27;;;;;;;25.10;15.32;;;18.80;99.90;;;;;;5041550;28;20021;-78
2021/09/26 10:39:54;;;;;;;23.35;16.10;;;18.80;99.90;;;;;;5036935;28;20033;-76
2021/09/26 10:42:24;;;;;;;19.58;16.20;;;18.80;99.90;;;;;;5014511;28;20035;-76
2021/09/26 10:45:02;;;;;;;21.35;15.15;;;18.90;99.90;;;;;;5042621;28;20375;-77
2021/09/26 10:47:30;;;;;;;21.58;17.27;;;19.00;99.90;;;;;;5041248;28;20139;-74
2021/09/26 10:50:04;;;;;;;23.40;18.05;;;18.90;99.90;;;;;;5039625;28;20039;-76
2021/09/26 10:52:34;;;;;;;25.55;17.65;;;18.80;99.90;;;;;;5041542;28;20035;-74
2021/09/26 10:55:38;;;;;;;21.25;15.90;;;18.70;99.90;;;;;;5042801;28;20120;-73
2021/09/26 10:58:07;;;;;;;25.67;17.88;;;18.60;99.90;;;;;;5033058;28;20045;-73
2021/09/26 11:00:43;;;;;;;22.33;16.90;;;18.50;99.90;;;;;;5041237;28;20043;-73
2021/09/26 11:03:21;;;;;;;24.38;18.02;;;18.50;99.90;;;;;;5042721;28;20032;-74
2021/09/26 11:05:48;;;;;;;32.75;21.48;;;18.50;99.90;;;;;;5041246;28;20464;-74
2021/09/26 11:08:37;;;;;;;27.52;20.48;;;18.50;99.90;;;;;;5042076;28;20514;-77
2021/09/26 11:11:04;;;;;;;24.83;18.70;;;18.60;99.90;;;;;;5038619;28;20029;-76
2021/09/26 11:13:36;;;;;;;23.52;18.77;;;18.70;99.90;;;;;;5042575;28;20021;-75
2021/09/26 11:16:18;;;;;;;27.20;19.63;;;18.70;99.90;;;;;;5017830;28;20048;-75
2021/09/26 11:18:57;;;;;;;25.65;18.48;;;18.70;99.90;;;;;;5041657;28;20111;-75
2021/09/26 11:21:38;;;;;;;17.63;14.70;;;18.80;99.90;;;;;;5040306;28;20033;-76
2021/09/26 11:24:08;;;;;;;17.38;14.25;;;18.70;99.90;;;;;;5041849;28;20692;-76
2021/09/26 11:27:00;;;;;;;17.77;14.57;;;18.80;99.90;;;;;;5048852;28;20029;-75
2021/09/26 11:29:43;;;;;;;21.60;15.73;;;18.90;99.90;;;;;;5049639;28;20025;-76
2021/09/26 11:32:15;;;;;;;20.10;14.32;;;19.00;99.90;;;;;;5043974;28;20040;-76
2021/09/26 11:34:47;;;;;;;33.45;25.58;;;19.00;99.90;;;;;;5023771;28;20033;-76
2021/09/26 11:37:15;;;;;;;27.27;20.85;;;18.90;99.90;;;;;;5033918;28;20037;-76
2021/09/26 11:39:49;;;;;;;21.00;18.05;;;19.00;99.90;;;;;;5042985;28;20037;-76
2021/09/26 11:42:26;;;;;;;;;;;19.00;99.90;;;;;;5041195;28;20037;-75
2021/09/26 11:44:53;;;;;;;24.00;15.73;;;18.90;99.90;;;;;;5040528;28;19916;-76
2021/09/26 11:47:19;;;;;;;21.20;14.45;;;18.80;99.90;;;;;;5042337;28;20511;-76
2021/09/26 11:49:45;;;;;;;23.05;16.58;;;18.80;99.90;;;;;;5033022;28;20030;-76
2021/09/26 11:52:11;;;;;;;22.92;18.65;;;18.90;99.90;;;;;;5031425;28;20040;-76
2021/09/26 11:54:37;;;;;;;28.25;18.10;;;18.70;99.90;;;;;;5044738;28;20040;-76
2021/09/26 11:57:02;;;;;;;27.73;19.13;;;18.60;99.90;;;;;;5043087;28;20036;-76
2021/09/26 11:59:38;;;;;;;22.92;18.65;;;18.50;99.90;;;;;;5043393;28;20025;-76
2021/09/26 12:02:14;;;;;;;23.17;19.38;;;18.30;99.90;;;;;;5041970;28;20094;-76
2021/09/26 12:04:41;;;;;;;23.13;19.45;;;18.30;99.90;;;;;;5042737;28;20025;-76
2021/09/26 12:07:08;;;;;;;26.92;19.00;;;18.40;99.90;;;;;;5037870;28;20542;-76
2021/09/26 12:09:42;;;;;;;25.33;19.13;;;18.50;99.90;;;;;;5033743;28;20056;-76
2021/09/26 12:12:20;;;;;;;23.98;19.85;;;18.50;99.90;;;;;;5029176;28;20040;-76
2021/09/26 12:14:51;;;;;;;25.77;17.98;;;18.50;99.90;;;;;;5042594;28;20502;-75
2021/09/26 12:17:28;;;;;;;21.95;18.33;;;18.50;99.90;;;;;;5043062;28;20052;-76
2021/09/26 12:19:58;;;;;;;23.30;18.60;;;18.50;99.90;;;;;;5042992;28;20056;-76
2021/09/26 12:22:28;;;;;;;21.95;17.70;;;18.60;99.90;;;;;;5041908;28;20026;-76
2021/09/26 12:25:01;;;;;;;24.85;17.73;;;18.60;99.90;;;;;;5024029;28;20375;-76
2021/09/26 12:27:51;;;;;;;22.27;19.20;;;18.60;99.90;;;;;;5030473;28;20037;-76
2021/09/26 12:30:43;;;;;;;23.63;19.17;;;18.60;99.90;;;;;;5023820;28;20025;-76
2021/09/26 12:33:24;;;;;;;22.23;18.27;;;18.70;99.90;;;;;;5027892;28;20039;-76
2021/09/26 12:35:54;;;;;;;22.05;19.23;;;18.70;99.90;;;;;;5043679;28;20061;-76
2021/09/26 12:38:26;;;;;;;25.52;21.00;;;18.60;99.90;;;;;;5029815;28;20040;-76